Time,TemperatureF,DewpointF,PressureIn,WindDirection,WindDirectionDegrees,WindSpeedMPH,WindSpeedGustMPH,Humidity,HourlyPrecipIn,Conditions,Clouds,dailyrainin,SoftwareType,DateUTC
2013-09-06 00:04:00,60.5,58.1,29.63,North,0,0.0,0.0,92,0.01,,,0.00,WUHU216HW,2013-09-06 07:04:00,
2013-09-06 00:30:00,60.5,58.5,29.64,North,0,0.0,0.0,93,0.01,,,0.00,WUHU216HW,2013-09-06 07:30:00,
2013-09-06 00:35:00,60.5,58.5,29.64,North,0,0.0,0.0,93,0.01,,,0.00,WUHU216HW,2013-09-06 07:35:00,
2013-09-06 00:59:00,60.3,58.3,29.64,North,0,0.0,0.0,93,0.01,,,0.00,WUHU216HW,2013-09-06 07:59:00,
2013-09-06 01:04:00,60.3,58.3,29.64,North,0,0.0,0.0,93,0.01,,,0.00,WUHU216HW,2013-09-06 08:04:00,
2013-09-06 01:30:00,60.3,58.3,29.63,North,0,0.0,0.0,93,0.01,,,0.01,WUHU216HW,2013-09-06 08:30:00,
2013-09-06 01:35:00,60.3,58.3,29.63,North,0,0.0,0.0,93,0.01,,,0.01,WUHU216HW,2013-09-06 08:35:00,
2013-09-06 01:59:00,60.1,58.2,29.63,North,0,0.0,0.0,93,0.01,,,0.01,WUHU216HW,2013-09-06 08:59:00,
2013-09-06 02:04:00,60.1,58.2,29.63,North,0,0.0,0.0,93,0.01,,,0.01,WUHU216HW,2013-09-06 09:04:00,
2013-09-06 02:30:00,60.1,58.2,29.61,North,0,0.0,0.0,93,0.01,,,0.02,WUHU216HW,2013-09-06 09:30:00,
2013-09-06 02:35:00,60.1,58.2,29.61,North,0,0.0,0.0,93,0.01,,,0.02,WUHU216HW,2013-09-06 09:35:00,
2013-09-06 02:59:00,59.9,58.0,29.61,North,0,0.0,0.0,93,0.01,,,0.02,WUHU216HW,2013-09-06 09:59:00,
2013-09-06 03:04:00,59.9,58.0,29.61,North,0,0.0,0.0,93,0.01,,,0.02,WUHU216HW,2013-09-06 10:04:00,
2013-09-06 03:30:00,59.9,58.0,29.61,North,0,0.0,0.0,93,0.01,,,0.03,WUHU216HW,2013-09-06 10:30:00,
2013-09-06 03:35:00,59.9,58.0,29.61,North,0,0.0,0.0,93,0.01,,,0.03,WUHU216HW,2013-09-06 10:35:00,
2013-09-06 03:59:00,59.8,57.8,29.61,North,0,0.0,0.0,93,0.01,,,0.03,WUHU216HW,2013-09-06 10:59:00,
2013-09-06 04:04:00,59.8,57.8,29.61,North,0,0.0,0.0,93,0.01,,,0.03,WUHU216HW,2013-09-06 11:04:00,
2013-09-06 04:30:00,59.8,57.8,29.61,North,0,0.0,0.0,93,0.01,,,0.04,WUHU216HW,2013-09-06 11:30:00,
2013-09-06 04:35:00,59.8,57.8,29.61,North,0,0.0,0.0,93,0.01,,,0.04,WUHU216HW,2013-09-06 11:35:00,
2013-09-06 04:59:00,59.8,58.1,29.61,North,0,0.0,0.0,94,0.01,,,0.04,WUHU216HW,2013-09-06 11:59:00,
2013-09-06 05:04:00,59.8,58.1,29.61,North,0,0.0,0.0,94,0.01,,,0.05,WUHU216HW,2013-09-06 12:04:00,
2013-09-06 05:09:00,59.8,58.1,29.61,North,0,0.0,0.0,94,0.01,,,0.05,WUHU216HW,2013-09-06 12:09:00,
2013-09-06 05:29:00,59.8,58.1,29.61,North,0,0.0,0.0,94,0.01,,,0.05,WUHU216HW,2013-09-06 12:29:00,
2013-09-06 05:34:00,59.8,58.1,29.61,North,0,0.0,0.0,94,0.01,,,0.05,WUHU216HW,2013-09-06 12:34:00,
2013-09-06 05:59:00,59.8,58.1,29.62,North,0,0.0,0.0,94,0.01,,,0.05,WUHU216HW,2013-09-06 12:59:00,
2013-09-06 06:04:00,59.8,58.1,29.62,North,0,0.0,0.0,94,0.01,,,0.06,WUHU216HW,2013-09-06 13:04:00,
2013-09-06 06:09:00,59.8,58.1,29.62,North,0,0.0,0.0,94,0.01,,,0.06,WUHU216HW,2013-09-06 13:09:00,
2013-09-06 06:29:00,59.9,58.2,29.62,North,0,0.0,0.0,94,0.01,,,0.06,WUHU216HW,2013-09-06 13:29:00,
2013-09-06 06:35:00,59.9,58.2,29.62,North,0,0.0,0.0,94,0.01,,,0.06,WUHU216HW,2013-09-06 13:35:00,
2013-09-06 06:59:00,59.9,58.2,29.63,North,0,0.0,0.0,94,0.01,,,0.06,WUHU216HW,2013-09-06 13:59:00,
2013-09-06 07:04:00,59.9,58.2,29.63,North,0,0.0,0.0,94,0.01,,,0.07,WUHU216HW,2013-09-06 14:04:00,
2013-09-06 07:09:00,59.9,58.2,29.63,North,0,0.0,0.0,94,0.01,,,0.07,WUHU216HW,2013-09-06 14:09:00,
2013-09-06 07:29:00,60.1,58.4,29.64,North,0,0.0,0.0,94,0.01,,,0.07,WUHU216HW,2013-09-06 14:29:00,
2013-09-06 07:34:00,60.1,58.4,29.64,North,0,0.0,0.0,94,0.01,,,0.07,WUHU216HW,2013-09-06 14:34:00,
2013-09-06 07:59:00,60.1,58.4,29.64,North,0,0.0,0.0,94,0.01,,,0.07,WUHU216HW,2013-09-06 14:59:00,
2013-09-06 08:04:00,60.1,58.4,29.64,North,0,0.0,0.0,94,0.01,,,0.09,WUHU216HW,2013-09-06 15:04:00,
2013-09-06 08:09:00,60.1,58.4,29.64,North,0,0.0,0.0,94,0.01,,,0.09,WUHU216HW,2013-09-06 15:09:00,
2013-09-06 08:30:00,60.7,59.0,29.65,North,0,0.0,0.0,94,0.01,,,0.09,WUHU216HW,2013-09-06 15:30:00,
2013-09-06 08:35:00,60.7,59.0,29.65,North,0,0.0,0.0,94,0.01,,,0.09,WUHU216HW,2013-09-06 15:35:00,
2013-09-06 08:59:00,61.6,59.9,29.66,North,0,0.0,0.0,94,0.01,,,0.09,WUHU216HW,2013-09-06 15:59:00,
2013-09-06 09:04:00,61.6,59.9,29.66,North,0,0.0,0.0,94,0.01,,,0.09,WUHU216HW,2013-09-06 16:04:00,
2013-09-06 09:29:00,62.3,60.6,29.66,North,0,0.0,0.0,94,0.01,,,0.09,WUHU216HW,2013-09-06 16:29:00,
2013-09-06 09:34:00,62.3,60.6,29.66,North,0,0.0,0.0,94,0.01,,,0.09,WUHU216HW,2013-09-06 16:34:00,
2013-09-06 09:59:00,62.6,60.7,29.68,North,0,0.0,0.0,93,0.01,,,0.09,WUHU216HW,2013-09-06 16:59:00,
2013-09-06 10:04:00,62.6,60.7,29.68,North,0,0.0,0.0,93,0.01,,,0.09,WUHU216HW,2013-09-06 17:04:00,
2013-09-06 10:29:00,63.0,61.0,29.68,North,0,0.0,0.0,93,0.01,,,0.11,WUHU216HW,2013-09-06 17:29:00,
2013-09-06 10:34:00,63.0,61.0,29.68,North,0,0.0,0.0,93,0.01,,,0.11,WUHU216HW,2013-09-06 17:34:00,
2013-09-06 10:59:00,62.8,60.9,29.68,North,0,0.0,0.0,93,0.01,,,0.11,WUHU216HW,2013-09-06 17:59:00,
2013-09-06 11:04:00,62.8,60.9,29.68,North,0,0.0,0.0,93,0.01,,,0.11,WUHU216HW,2013-09-06 18:04:00,
2013-09-06 11:29:00,63.0,61.0,29.69,North,0,0.0,0.0,93,0.01,,,0.11,WUHU216HW,2013-09-06 18:29:00,
2013-09-06 11:34:00,63.0,61.0,29.69,North,0,0.0,0.0,93,0.01,,,0.11,WUHU216HW,2013-09-06 18:34:00,
2013-09-06 11:59:00,64.4,62.1,29.70,North,0,0.0,0.0,92,0.00,,,0.11,WUHU216HW,2013-09-06 18:59:00,
2013-09-06 12:04:00,64.4,62.1,29.70,North,0,0.0,0.0,92,0.00,,,0.11,WUHU216HW,2013-09-06 19:04:00,
2013-09-06 12:29:00,65.7,63.0,29.69,North,0,0.0,0.0,91,0.01,,,0.11,WUHU216HW,2013-09-06 19:29:00,
2013-09-06 12:34:00,65.7,63.0,29.69,North,0,0.0,0.0,91,0.01,,,0.11,WUHU216HW,2013-09-06 19:34:00,
2013-09-06 12:59:00,65.2,62.2,29.70,North,0,0.0,0.0,90,0.01,,,0.13,WUHU216HW,2013-09-06 19:59:00,
2013-09-06 13:04:00,65.2,62.2,29.70,North,0,0.0,0.0,90,0.01,,,0.13,WUHU216HW,2013-09-06 20:04:00,
2013-09-06 13:29:00,66.6,63.8,29.70,North,0,0.0,0.0,91,0.01,,,0.13,WUHU216HW,2013-09-06 20:29:00,
2013-09-06 13:34:00,66.6,63.8,29.70,North,0,0.0,0.0,91,0.01,,,0.13,WUHU216HW,2013-09-06 20:34:00,
2013-09-06 13:59:00,67.0,63.3,29.70,North,0,0.0,0.0,88,0.01,,,0.13,WUHU216HW,2013-09-06 20:59:00,
2013-09-06 14:04:00,67.0,63.3,29.70,North,0,0.0,0.0,88,0.01,,,0.13,WUHU216HW,2013-09-06 21:04:00,
2013-09-06 14:29:00,67.5,63.8,29.71,North,0,0.0,0.0,88,0.00,,,0.13,WUHU216HW,2013-09-06 21:29:00,
2013-09-06 14:34:00,67.5,63.8,29.71,North,0,0.0,0.0,88,0.00,,,0.13,WUHU216HW,2013-09-06 21:34:00,
2013-09-06 14:59:00,68.2,63.6,29.71,North,0,0.0,0.0,85,0.01,,,0.13,WUHU216HW,2013-09-06 21:59:00,
2013-09-06 15:04:00,68.2,63.6,29.71,North,0,0.0,0.0,85,0.01,,,0.13,WUHU216HW,2013-09-06 22:04:00,
2013-09-06 15:29:00,68.4,64.0,29.72,North,0,0.0,0.0,86,0.00,,,0.14,WUHU216HW,2013-09-06 22:29:00,
2013-09-06 15:34:00,68.4,64.0,29.72,North,0,0.0,0.0,86,0.00,,,0.14,WUHU216HW,2013-09-06 22:34:00,
2013-09-06 15:59:00,69.5,64.7,29.72,North,0,0.0,0.0,85,0.01,,,0.14,WUHU216HW,2013-09-06 22:59:00,
2013-09-06 16:04:00,69.5,64.7,29.72,North,0,0.0,0.0,85,0.01,,,0.14,WUHU216HW,2013-09-06 23:04:00,
2013-09-06 16:29:00,71.3,65.5,29.72,North,0,0.0,0.0,82,0.00,,,0.16,WUHU216HW,2013-09-06 23:29:00,
2013-09-06 16:34:00,71.3,65.5,29.72,North,0,0.0,0.0,82,0.00,,,0.16,WUHU216HW,2013-09-06 23:34:00,
2013-09-06 16:59:00,69.8,64.7,29.73,North,0,0.0,0.0,84,0.01,,,0.16,WUHU216HW,2013-09-06 23:59:00,
2013-09-06 17:04:00,69.8,64.7,29.73,North,0,0.0,0.0,84,0.01,,,0.16,WUHU216HW,2013-09-07 00:04:00,
2013-09-06 17:29:00,68.6,63.9,29.73,North,0,0.0,0.0,85,0.01,,,0.16,WUHU216HW,2013-09-07 00:29:00,
2013-09-06 17:34:00,68.6,63.9,29.73,North,0,0.0,0.0,85,0.01,,,0.16,WUHU216HW,2013-09-07 00:34:00,
2013-09-06 17:59:00,67.5,63.2,29.73,North,0,0.0,0.0,86,0.00,,,0.16,WUHU216HW,2013-09-07 00:59:00,
2013-09-06 18:04:00,67.5,63.2,29.73,North,0,0.0,0.0,86,0.00,,,0.16,WUHU216HW,2013-09-07 01:04:00,
2013-09-06 18:09:00,67.5,63.2,29.73,North,0,0.0,0.0,86,0.00,,,0.16,WUHU216HW,2013-09-07 01:09:00,
2013-09-06 18:30:00,66.6,62.9,29.74,North,0,0.0,0.0,88,0.01,,,0.16,WUHU216HW,2013-09-07 01:30:00,
2013-09-06 18:35:00,66.6,62.9,29.74,North,0,0.0,0.0,88,0.01,,,0.16,WUHU216HW,2013-09-07 01:35:00,
2013-09-06 18:59:00,65.5,61.8,29.74,North,0,0.0,0.0,88,0.01,,,0.18,WUHU216HW,2013-09-07 01:59:00,
2013-09-06 19:04:00,65.5,61.8,29.74,North,0,0.0,0.0,88,0.01,,,0.18,WUHU216HW,2013-09-07 02:04:00,
2013-09-06 19:09:00,65.5,61.8,29.74,North,0,0.0,0.0,88,0.01,,,0.18,WUHU216HW,2013-09-07 02:09:00,
2013-09-06 19:30:00,64.6,60.7,29.74,North,0,0.0,0.0,87,0.00,,,0.18,WUHU216HW,2013-09-07 02:30:00,
2013-09-06 19:35:00,64.6,60.7,29.74,North,0,0.0,0.0,87,0.00,,,0.18,WUHU216HW,2013-09-07 02:35:00,
2013-09-06 19:59:00,64.1,60.5,29.75,North,0,0.0,0.0,88,0.00,,,0.18,WUHU216HW,2013-09-07 02:59:00,
2013-09-06 20:04:00,64.1,60.5,29.75,North,0,0.0,0.0,88,0.00,,,0.18,WUHU216HW,2013-09-07 03:04:00,
2013-09-06 20:09:00,64.1,60.5,29.75,North,0,0.0,0.0,88,0.00,,,0.18,WUHU216HW,2013-09-07 03:09:00,
2013-09-06 20:29:00,63.0,59.4,29.75,North,0,0.0,0.0,88,0.01,,,0.18,WUHU216HW,2013-09-07 03:29:00,
2013-09-06 20:35:00,63.0,59.4,29.75,North,0,0.0,0.0,88,0.01,,,0.18,WUHU216HW,2013-09-07 03:35:00,
2013-09-06 20:59:00,61.9,58.7,29.76,North,0,0.0,0.0,89,0.01,,,0.18,WUHU216HW,2013-09-07 03:59:00,
2013-09-06 21:01:00,61.9,58.7,29.76,North,0,0.0,0.0,89,0.01,,,0.18,WUHU216HW,2013-09-07 04:01:00,
2013-09-06 21:06:00,61.9,58.7,29.76,North,0,0.0,0.0,89,0.01,,,0.18,WUHU216HW,2013-09-07 04:06:00,
2013-09-06 21:30:00,61.6,58.7,29.76,North,0,0.0,0.0,90,0.00,,,0.18,WUHU216HW,2013-09-07 04:30:00,
2013-09-06 21:34:00,61.6,58.7,29.76,North,0,0.0,0.0,90,0.00,,,0.18,WUHU216HW,2013-09-07 04:34:00,
2013-09-06 21:40:00,61.6,58.7,29.76,North,0,0.0,0.0,90,0.00,,,0.18,WUHU216HW,2013-09-07 04:40:00,
2013-09-06 21:59:00,61.2,58.3,29.76,North,0,0.0,0.0,90,0.00,,,0.18,WUHU216HW,2013-09-07 04:59:00,
2013-09-06 22:04:00,61.2,58.3,29.76,North,0,0.0,0.0,90,0.00,,,0.18,WUHU216HW,2013-09-07 05:04:00,
2013-09-06 22:09:00,61.2,58.3,29.76,North,0,0.0,0.0,90,0.00,,,0.18,WUHU216HW,2013-09-07 05:09:00,
2013-09-06 22:30:00,60.7,57.8,29.77,North,0,0.0,0.0,90,0.01,,,0.18,WUHU216HW,2013-09-07 05:30:00,
2013-09-06 22:35:00,60.7,57.8,29.77,North,0,0.0,0.0,90,0.01,,,0.18,WUHU216HW,2013-09-07 05:35:00,
2013-09-06 22:59:00,60.5,57.9,29.77,North,0,0.0,0.0,91,0.01,,,0.20,WUHU216HW,2013-09-07 05:59:00,
2013-09-06 23:04:00,60.5,57.9,29.77,North,0,0.0,0.0,91,0.01,,,0.20,WUHU216HW,2013-09-07 06:04:00,
2013-09-06 23:09:00,60.5,57.9,29.77,North,0,0.0,0.0,91,0.01,,,0.20,WUHU216HW,2013-09-07 06:09:00,
2013-09-06 23:29:00,60.5,58.1,29.77,North,0,0.0,0.0,92,0.00,,,0.20,WUHU216HW,2013-09-07 06:29:00,
2013-09-06 23:34:00,60.5,58.1,29.77,North,0,0.0,0.0,92,0.00,,,0.20,WUHU216HW,2013-09-07 06:34:00,
2013-09-06 23:59:00,59.8,57.4,29.77,North,0,0.0,0.0,92,0.00,,,0.00,WUHU216HW,2013-09-07 06:59:00,